sensor_id;sensor_type;location;lat;lon;timestamp;temperature;humidity
23259;DHT22;11798;51.528;7.240;2022-11-15T00:01:45;10.40;99.90
23259;DHT22;11798;51.528;7.240;2022-11-15T00:04:11;10.30;99.90
23259;DHT22;11798;51.528;7.240;2022-11-15T00:06:36;10.40;99.90
23259;DHT22;11798;51.528;7.240;2022-11-15T00:09:02;10.50;99.90
23259;DHT22;11798;51.528;7.240;2022-11-15T00:11:28;10.50;99.90
23259;DHT22;11798;51.528;7.240;2022-11-15T00:13:56;10.50;99.90
23259;DHT22;11798;51.528;7.240;2022-11-15T00:16:22;10.60;99.90
23259;DHT22;11798;51.528;7.240;2022-11-15T00:18:48;10.60;99.90
23259;DHT22;11798;51.528;7.240;2022-11-15T00:21:14;10.60;99.90
23259;DHT22;11798;51.528;7.240;2022-11-15T00:23:40;10.70;99.90
23259;DHT22;11798;51.528;7.240;2022-11-15T00:26:07;10.70;99.90
23259;DHT22;11798;51.528;7.240;2022-11-15T00:28:32;10.70;99.90
23259;DHT22;11798;51.528;7.240;2022-11-15T00:31:06;10.70;99.90
23259;DHT22;11798;51.528;7.240;2022-11-15T00:33:32;10.70;99.90
23259;DHT22;11798;51.528;7.240;2022-11-15T00:36:05;10.70;99.90
23259;DHT22;11798;51.528;7.240;2022-11-15T00:38:32;10.80;99.90
23259;DHT22;11798;51.528;7.240;2022-11-15T00:40:58;10.80;99.90
23259;DHT22;11798;51.528;7.240;2022-11-15T00:43:24;10.90;99.90
23259;DHT22;11798;51.528;7.240;2022-11-15T00:45:49;10.90;99.90
23259;DHT22;11798;51.528;7.240;2022-11-15T00:48:15;11.00;99.90
23259;DHT22;11798;51.528;7.240;2022-11-15T00:50:41;11.00;99.90
23259;DHT22;11798;51.528;7.240;2022-11-15T00:53:06;11.00;99.90
23259;DHT22;11798;51.528;7.240;2022-11-15T00:55:32;11.00;99.90
23259;DHT22;11798;51.528;7.240;2022-11-15T00:57:57;11.00;99.90
23259;DHT22;11798;51.528;7.240;2022-11-15T01:00:23;11.00;99.90
23259;DHT22;11798;51.528;7.240;2022-11-15T01:02:48;11.00;99.90
23259;DHT22;11798;51.528;7.240;2022-11-15T01:05:14;11.10;99.90
23259;DHT22;11798;51.528;7.240;2022-11-15T01:07:39;11.10;99.90
23259;DHT22;11798;51.528;7.240;2022-11-15T01:10:06;11.10;99.90
23259;DHT22;11798;51.528;7.240;2022-11-15T01:12:32;11.10;99.90
23259;DHT22;11798;51.528;7.240;2022-11-15T01:14:58;11.20;99.90
23259;DHT22;11798;51.528;7.240;2022-11-15T01:17:23;11.20;99.90
23259;DHT22;11798;51.528;7.240;2022-11-15T01:19:49;11.20;99.90
23259;DHT22;11798;51.528;7.240;2022-11-15T01:22:15;11.30;99.90
23259;DHT22;11798;51.528;7.240;2022-11-15T01:24:41;11.30;99.90
23259;DHT22;11798;51.528;7.240;2022-11-15T01:27:07;11.30;99.90
23259;DHT22;11798;51.528;7.240;2022-11-15T01:29:33;11.40;99.90
23259;DHT22;11798;51.528;7.240;2022-11-15T01:31:58;11.40;99.90
23259;DHT22;11798;51.528;7.240;2022-11-15T01:34:24;11.40;99.90
23259;DHT22;11798;51.528;7.240;2022-11-15T01:36:49;11.50;99.90
23259;DHT22;11798;51.528;7.240;2022-11-15T01:39:15;11.50;99.90
23259;DHT22;11798;51.528;7.240;2022-11-15T01:41:41;11.50;99.90
23259;DHT22;11798;51.528;7.240;2022-11-15T01:46:54;11.60;99.90
23259;DHT22;11798;51.528;7.240;2022-11-15T01:49:21;11.60;99.90
23259;DHT22;11798;51.528;7.240;2022-11-15T01:51:48;11.60;99.90
23259;DHT22;11798;51.528;7.240;2022-11-15T01:54:17;11.60;99.90
23259;DHT22;11798;51.528;7.240;2022-11-15T01:56:49;11.60;99.90
23259;DHT22;11798;51.528;7.240;2022-11-15T01:59:16;11.60;99.90
23259;DHT22;11798;51.528;7.240;2022-11-15T02:01:43;11.60;99.90
23259;DHT22;11798;51.528;7.240;2022-11-15T02:04:18;11.60;99.90
23259;DHT22;11798;51.528;7.240;2022-11-15T02:06:47;11.70;99.90
23259;DHT22;11798;51.528;7.240;2022-11-15T02:09:13;11.70;99.90
23259;DHT22;11798;51.528;7.240;2022-11-15T02:11:39;11.70;99.90
23259;DHT22;11798;51.528;7.240;2022-11-15T02:14:06;11.70;99.90
23259;DHT22;11798;51.528;7.240;2022-11-15T02:16:38;11.70;99.90
23259;DHT22;11798;51.528;7.240;2022-11-15T02:30:24;11.80;99.90
23259;DHT22;11798;51.528;7.240;2022-11-15T02:33:03;11.80;99.90
23259;DHT22;11798;51.528;7.240;2022-11-15T02:40:53;11.80;99.90
23259;DHT22;11798;51.528;7.240;2022-11-15T02:43:29;11.80;99.90
23259;DHT22;11798;51.528;7.240;2022-11-15T02:46:21;11.80;99.90
23259;DHT22;11798;51.528;7.240;2022-11-15T02:49:10;11.80;99.90
23259;DHT22;11798;51.528;7.240;2022-11-15T02:51:36;11.80;99.90
23259;DHT22;11798;51.528;7.240;2022-11-15T02:54:02;11.80;99.90
23259;DHT22;11798;51.528;7.240;2022-11-15T02:56:27;11.80;99.90
23259;DHT22;11798;51.528;7.240;2022-11-15T03:02:07;11.80;99.90
23259;DHT22;11798;51.528;7.240;2022-11-15T03:07:30;11.80;99.90
23259;DHT22;11798;51.528;7.240;2022-11-15T03:12:27;11.70;99.90
23259;DHT22;11798;51.528;7.240;2022-11-15T03:15:05;11.60;99.90
23259;DHT22;11798;51.528;7.240;2022-11-15T03:17:42;11.70;99.90
23259;DHT22;11798;51.528;7.240;2022-11-15T03:20:10;11.70;99.90
23259;DHT22;11798;51.528;7.240;2022-11-15T03:22:40;11.80;99.90
23259;DHT22;11798;51.528;7.240;2022-11-15T03:25:10;11.80;99.90
23259;DHT22;11798;51.528;7.240;2022-11-15T03:27:40;11.80;99.90
23259;DHT22;11798;51.528;7.240;2022-11-15T03:30:08;11.80;99.90
23259;DHT22;11798;51.528;7.240;2022-11-15T03:32:42;11.80;99.90
23259;DHT22;11798;51.528;7.240;2022-11-15T03:35:17;11.90;99.90
23259;DHT22;11798;51.528;7.240;2022-11-15T03:40:16;11.90;99.90
23259;DHT22;11798;51.528;7.240;2022-11-15T03:42:48;11.80;99.90
23259;DHT22;11798;51.528;7.240;2022-11-15T03:45:25;11.90;99.90
23259;DHT22;11798;51.528;7.240;2022-11-15T03:48:07;11.90;99.90
23259;DHT22;11798;51.528;7.240;2022-11-15T03:50:35;11.90;99.90
23259;DHT22;11798;51.528;7.240;2022-11-15T03:53:01;11.90;99.90
23259;DHT22;11798;51.528;7.240;2022-11-15T03:55:27;11.90;99.90
23259;DHT22;11798;51.528;7.240;2022-11-15T03:57:55;11.90;99.90
23259;DHT22;11798;51.528;7.240;2022-11-15T04:00:23;11.90;99.90
23259;DHT22;11798;51.528;7.240;2022-11-15T04:02:48;11.90;99.90
23259;DHT22;11798;51.528;7.240;2022-11-15T04:05:14;11.90;99.90
23259;DHT22;11798;51.528;7.240;2022-11-15T04:07:39;11.90;99.90
23259;DHT22;11798;51.528;7.240;2022-11-15T04:10:05;12.00;99.90
23259;DHT22;11798;51.528;7.240;2022-11-15T04:12:33;12.00;99.90
23259;DHT22;11798;51.528;7.240;2022-11-15T04:15:07;12.00;99.90
23259;DHT22;11798;51.528;7.240;2022-11-15T04:20:02;11.90;99.90
23259;DHT22;11798;51.528;7.240;2022-11-15T04:22:45;11.90;99.90
23259;DHT22;11798;51.528;7.240;2022-11-15T04:25:29;11.90;99.90
23259;DHT22;11798;51.528;7.240;2022-11-15T04:27:55;11.90;99.90
23259;DHT22;11798;51.528;7.240;2022-11-15T04:30:21;11.90;99.90
23259;DHT22;11798;51.528;7.240;2022-11-15T04:32:46;12.00;99.90
23259;DHT22;11798;51.528;7.240;2022-11-15T04:35:12;12.00;99.90
23259;DHT22;11798;51.528;7.240;2022-11-15T04:37:37;12.00;99.90
23259;DHT22;11798;51.528;7.240;2022-11-15T04:40:03;12.00;99.90
23259;DHT22;11798;51.528;7.240;2022-11-15T04:42:29;11.90;99.90
23259;DHT22;11798;51.528;7.240;2022-11-15T04:44:54;11.90;99.90
23259;DHT22;11798;51.528;7.240;2022-11-15T04:47:21;12.00;99.90
23259;DHT22;11798;51.528;7.240;2022-11-15T04:49:46;12.00;99.90
23259;DHT22;11798;51.528;7.240;2022-11-15T04:52:12;12.00;99.90
23259;DHT22;11798;51.528;7.240;2022-11-15T04:54:37;12.00;99.90
23259;DHT22;11798;51.528;7.240;2022-11-15T04:57:03;12.00;99.90
23259;DHT22;11798;51.528;7.240;2022-11-15T04:59:28;12.00;99.90
23259;DHT22;11798;51.528;7.240;2022-11-15T05:01:54;12.00;99.90
23259;DHT22;11798;51.528;7.240;2022-11-15T05:04:19;12.00;99.90
23259;DHT22;11798;51.528;7.240;2022-11-15T05:06:47;12.00;99.90
23259;DHT22;11798;51.528;7.240;2022-11-15T05:09:13;12.10;99.90
23259;DHT22;11798;51.528;7.240;2022-11-15T05:11:39;12.10;99.90
23259;DHT22;11798;51.528;7.240;2022-11-15T05:14:05;12.00;99.90
23259;DHT22;11798;51.528;7.240;2022-11-15T05:16:30;12.10;99.90
23259;DHT22;11798;51.528;7.240;2022-11-15T05:18:56;12.10;99.90
23259;DHT22;11798;51.528;7.240;2022-11-15T05:21:22;12.10;99.90
23259;DHT22;11798;51.528;7.240;2022-11-15T05:23:47;12.10;99.90
23259;DHT22;11798;51.528;7.240;2022-11-15T05:26:15;12.10;99.90
23259;DHT22;11798;51.528;7.240;2022-11-15T05:28:43;12.20;99.90
23259;DHT22;11798;51.528;7.240;2022-11-15T05:31:11;12.10;99.90
23259;DHT22;11798;51.528;7.240;2022-11-15T05:33:38;12.10;99.90
23259;DHT22;11798;51.528;7.240;2022-11-15T05:38:49;12.20;99.90
23259;DHT22;11798;51.528;7.240;2022-11-15T05:41:17;12.20;99.90
23259;DHT22;11798;51.528;7.240;2022-11-15T05:43:44;12.20;99.90
23259;DHT22;11798;51.528;7.240;2022-11-15T05:46:10;12.20;99.90
23259;DHT22;11798;51.528;7.240;2022-11-15T05:48:41;12.20;99.90
23259;DHT22;11798;51.528;7.240;2022-11-15T05:51:08;12.20;99.90
23259;DHT22;11798;51.528;7.240;2022-11-15T05:53:35;12.20;99.90
23259;DHT22;11798;51.528;7.240;2022-11-15T05:56:03;12.20;99.90
23259;DHT22;11798;51.528;7.240;2022-11-15T05:58:31;12.20;99.90
23259;DHT22;11798;51.528;7.240;2022-11-15T06:00:57;12.20;99.90
23259;DHT22;11798;51.528;7.240;2022-11-15T06:03:22;12.20;99.90
23259;DHT22;11798;51.528;7.240;2022-11-15T06:05:48;12.20;99.90
23259;DHT22;11798;51.528;7.240;2022-11-15T06:08:13;12.20;99.90
23259;DHT22;11798;51.528;7.240;2022-11-15T06:10:39;12.20;99.90
23259;DHT22;11798;51.528;7.240;2022-11-15T06:13:05;12.20;99.90
23259;DHT22;11798;51.528;7.240;2022-11-15T06:15:32;12.20;99.90
23259;DHT22;11798;51.528;7.240;2022-11-15T06:17:58;12.10;99.90
23259;DHT22;11798;51.528;7.240;2022-11-15T06:20:25;12.10;99.90
23259;DHT22;11798;51.528;7.240;2022-11-15T06:22:51;12.20;99.90
23259;DHT22;11798;51.528;7.240;2022-11-15T06:25:21;12.10;99.90
23259;DHT22;11798;51.528;7.240;2022-11-15T06:27:51;12.20;99.90
23259;DHT22;11798;51.528;7.240;2022-11-15T06:30:17;12.10;99.90
23259;DHT22;11798;51.528;7.240;2022-11-15T06:32:43;12.20;99.90
23259;DHT22;11798;51.528;7.240;2022-11-15T06:35:08;12.10;99.90
23259;DHT22;11798;51.528;7.240;2022-11-15T06:37:34;12.20;99.90
23259;DHT22;11798;51.528;7.240;2022-11-15T06:39:59;12.20;99.90
23259;DHT22;11798;51.528;7.240;2022-11-15T06:42:25;12.10;99.90
23259;DHT22;11798;51.528;7.240;2022-11-15T06:44:50;12.10;99.90
23259;DHT22;11798;51.528;7.240;2022-11-15T06:47:16;12.10;99.90
23259;DHT22;11798;51.528;7.240;2022-11-15T06:49:41;12.10;99.90
23259;DHT22;11798;51.528;7.240;2022-11-15T06:52:07;12.20;99.90
23259;DHT22;11798;51.528;7.240;2022-11-15T06:54:32;12.20;99.90
23259;DHT22;11798;51.528;7.240;2022-11-15T06:56:58;12.10;99.90
23259;DHT22;11798;51.528;7.240;2022-11-15T06:59:24;12.20;99.90
23259;DHT22;11798;51.528;7.240;2022-11-15T07:01:49;12.20;99.90
23259;DHT22;11798;51.528;7.240;2022-11-15T07:04:15;12.20;99.90
23259;DHT22;11798;51.528;7.240;2022-11-15T07:06:40;12.20;99.90
23259;DHT22;11798;51.528;7.240;2022-11-15T07:09:06;12.20;99.90
23259;DHT22;11798;51.528;7.240;2022-11-15T07:11:33;12.30;99.90
23259;DHT22;11798;51.528;7.240;2022-11-15T07:14:00;12.30;99.90
23259;DHT22;11798;51.528;7.240;2022-11-15T07:16:25;12.30;99.90
23259;DHT22;11798;51.528;7.240;2022-11-15T07:18:51;12.20;99.90
23259;DHT22;11798;51.528;7.240;2022-11-15T07:21:16;12.30;99.90
23259;DHT22;11798;51.528;7.240;2022-11-15T07:23:42;12.30;99.90
23259;DHT22;11798;51.528;7.240;2022-11-15T07:26:08;12.30;99.90
23259;DHT22;11798;51.528;7.240;2022-11-15T07:28:34;12.30;99.90
23259;DHT22;11798;51.528;7.240;2022-11-15T07:31:07;12.30;99.90
23259;DHT22;11798;51.528;7.240;2022-11-15T07:33:34;12.30;99.90
23259;DHT22;11798;51.528;7.240;2022-11-15T07:36:00;12.30;99.90
23259;DHT22;11798;51.528;7.240;2022-11-15T07:38:29;12.30;99.90
23259;DHT22;11798;51.528;7.240;2022-11-15T07:41:00;12.30;99.90
23259;DHT22;11798;51.528;7.240;2022-11-15T07:43:26;12.30;99.90
23259;DHT22;11798;51.528;7.240;2022-11-15T07:45:55;12.30;99.90
23259;DHT22;11798;51.528;7.240;2022-11-15T07:48:22;12.30;99.90
23259;DHT22;11798;51.528;7.240;2022-11-15T07:50:48;12.20;99.90
23259;DHT22;11798;51.528;7.240;2022-11-15T07:53:14;12.10;99.90
23259;DHT22;11798;51.528;7.240;2022-11-15T07:55:41;12.10;99.90
23259;DHT22;11798;51.528;7.240;2022-11-15T07:58:09;12.10;99.90
23259;DHT22;11798;51.528;7.240;2022-11-15T08:00:35;12.10;99.90
23259;DHT22;11798;51.528;7.240;2022-11-15T08:03:07;12.00;99.90
23259;DHT22;11798;51.528;7.240;2022-11-15T08:05:33;12.00;99.90
23259;DHT22;11798;51.528;7.240;2022-11-15T08:07:59;12.00;99.90
23259;DHT22;11798;51.528;7.240;2022-11-15T08:10:26;12.00;99.90
23259;DHT22;11798;51.528;7.240;2022-11-15T08:13:06;12.00;99.90
23259;DHT22;11798;51.528;7.240;2022-11-15T08:15:33;12.00;99.90
23259;DHT22;11798;51.528;7.240;2022-11-15T08:18:19;12.00;99.90
23259;DHT22;11798;51.528;7.240;2022-11-15T08:20:45;12.00;99.90
23259;DHT22;11798;51.528;7.240;2022-11-15T08:23:11;12.00;99.90
23259;DHT22;11798;51.528;7.240;2022-11-15T08:25:38;12.00;99.90
23259;DHT22;11798;51.528;7.240;2022-11-15T08:28:05;12.00;99.90
23259;DHT22;11798;51.528;7.240;2022-11-15T08:30:38;12.00;99.90
23259;DHT22;11798;51.528;7.240;2022-11-15T08:33:10;12.00;99.90
23259;DHT22;11798;51.528;7.240;2022-11-15T08:35:36;12.10;99.90
23259;DHT22;11798;51.528;7.240;2022-11-15T08:38:02;12.10;99.90
23259;DHT22;11798;51.528;7.240;2022-11-15T08:40:27;12.10;99.90
23259;DHT22;11798;51.528;7.240;2022-11-15T08:42:53;12.10;99.90
23259;DHT22;11798;51.528;7.240;2022-11-15T08:45:19;12.20;99.90
23259;DHT22;11798;51.528;7.240;2022-11-15T08:47:44;12.20;99.90
23259;DHT22;11798;51.528;7.240;2022-11-15T08:50:10;12.20;99.90
23259;DHT22;11798;51.528;7.240;2022-11-15T08:52:35;12.20;99.90
23259;DHT22;11798;51.528;7.240;2022-11-15T08:55:01;12.20;99.90
23259;DHT22;11798;51.528;7.240;2022-11-15T08:57:29;12.30;99.90
23259;DHT22;11798;51.528;7.240;2022-11-15T08:59:55;12.30;99.90
23259;DHT22;11798;51.528;7.240;2022-11-15T09:02:21;12.40;99.90
23259;DHT22;11798;51.528;7.240;2022-11-15T09:04:47;12.30;99.90
23259;DHT22;11798;51.528;7.240;2022-11-15T09:07:13;12.40;99.90
23259;DHT22;11798;51.528;7.240;2022-11-15T09:09:39;12.30;99.90
23259;DHT22;11798;51.528;7.240;2022-11-15T09:12:06;12.30;99.90
23259;DHT22;11798;51.528;7.240;2022-11-15T09:14:32;12.40;99.90
23259;DHT22;11798;51.528;7.240;2022-11-15T09:16:58;12.40;99.90
23259;DHT22;11798;51.528;7.240;2022-11-15T09:19:24;12.40;99.90
23259;DHT22;11798;51.528;7.240;2022-11-15T09:21:50;12.40;99.90
23259;DHT22;11798;51.528;7.240;2022-11-15T09:24:15;12.40;99.90
23259;DHT22;11798;51.528;7.240;2022-11-15T09:26:42;12.40;99.90
23259;DHT22;11798;51.528;7.240;2022-11-15T09:29:08;12.40;99.90
23259;DHT22;11798;51.528;7.240;2022-11-15T09:31:33;12.40;99.90
23259;DHT22;11798;51.528;7.240;2022-11-15T09:33:59;12.50;99.90
23259;DHT22;11798;51.528;7.240;2022-11-15T09:36:25;12.50;99.90
23259;DHT22;11798;51.528;7.240;2022-11-15T09:38:50;12.50;99.90
23259;DHT22;11798;51.528;7.240;2022-11-15T09:51:58;12.60;99.90
23259;DHT22;11798;51.528;7.240;2022-11-15T09:54:35;12.60;99.90
23259;DHT22;11798;51.528;7.240;2022-11-15T09:57:14;12.70;99.90
23259;DHT22;11798;51.528;7.240;2022-11-15T10:00:29;12.70;99.90
23259;DHT22;11798;51.528;7.240;2022-11-15T10:05:22;12.80;99.90
23259;DHT22;11798;51.528;7.240;2022-11-15T10:10:45;12.80;99.90
23259;DHT22;11798;51.528;7.240;2022-11-15T10:13:26;12.90;99.90
23259;DHT22;11798;51.528;7.240;2022-11-15T10:16:04;12.80;99.90
23259;DHT22;11798;51.528;7.240;2022-11-15T10:21:37;12.80;99.90
23259;DHT22;11798;51.528;7.240;2022-11-15T10:24:12;12.80;99.90
23259;DHT22;11798;51.528;7.240;2022-11-15T10:26:44;12.90;99.90
23259;DHT22;11798;51.528;7.240;2022-11-15T10:29:11;12.90;99.90
23259;DHT22;11798;51.528;7.240;2022-11-15T10:31:39;12.90;99.90
23259;DHT22;11798;51.528;7.240;2022-11-15T10:34:14;12.90;99.90
23259;DHT22;11798;51.528;7.240;2022-11-15T10:36:56;12.90;99.90
23259;DHT22;11798;51.528;7.240;2022-11-15T10:39:22;12.90;99.90
23259;DHT22;11798;51.528;7.240;2022-11-15T10:41:48;12.90;99.90
23259;DHT22;11798;51.528;7.240;2022-11-15T10:46:46;12.90;99.90
23259;DHT22;11798;51.528;7.240;2022-11-15T10:49:20;13.00;99.90
23259;DHT22;11798;51.528;7.240;2022-11-15T10:52:16;12.90;99.90
23259;DHT22;11798;51.528;7.240;2022-11-15T10:54:48;12.90;99.90
23259;DHT22;11798;51.528;7.240;2022-11-15T10:57:19;13.00;99.90
23259;DHT22;11798;51.528;7.240;2022-11-15T10:59:54;13.10;99.90
23259;DHT22;11798;51.528;7.240;2022-11-15T11:04:55;13.10;99.90
23259;DHT22;11798;51.528;7.240;2022-11-15T11:07:23;13.20;99.90
23259;DHT22;11798;51.528;7.240;2022-11-15T11:09:57;13.20;99.90
23259;DHT22;11798;51.528;7.240;2022-11-15T11:12:28;13.20;99.90
23259;DHT22;11798;51.528;7.240;2022-11-15T11:14:55;13.20;99.90
23259;DHT22;11798;51.528;7.240;2022-11-15T11:17:51;13.20;99.90
23259;DHT22;11798;51.528;7.240;2022-11-15T11:20:24;13.20;99.90
23259;DHT22;11798;51.528;7.240;2022-11-15T11:26:01;13.30;99.90
23259;DHT22;11798;51.528;7.240;2022-11-15T11:29:00;13.30;99.90
23259;DHT22;11798;51.528;7.240;2022-11-15T11:31:58;13.30;99.90
23259;DHT22;11798;51.528;7.240;2022-11-15T11:35:29;13.40;99.90
23259;DHT22;11798;51.528;7.240;2022-11-15T11:37:52;13.50;99.90
23259;DHT22;11798;51.528;7.240;2022-11-15T11:40:44;13.40;99.90
23259;DHT22;11798;51.528;7.240;2022-11-15T11:43:30;13.40;99.90
23259;DHT22;11798;51.528;7.240;2022-11-15T11:51:45;13.50;99.90
23259;DHT22;11798;51.528;7.240;2022-11-15T11:56:44;13.50;99.90
23259;DHT22;11798;51.528;7.240;2022-11-15T11:59:31;13.50;99.90
23259;DHT22;11798;51.528;7.240;2022-11-15T12:02:12;13.50;99.90
23259;DHT22;11798;51.528;7.240;2022-11-15T12:04:44;13.50;99.90
23259;DHT22;11798;51.528;7.240;2022-11-15T12:12:51;13.50;99.90
23259;DHT22;11798;51.528;7.240;2022-11-15T12:15:24;13.40;99.90
23259;DHT22;11798;51.528;7.240;2022-11-15T12:17:51;13.40;99.90
23259;DHT22;11798;51.528;7.240;2022-11-15T12:20:19;13.50;99.90
23259;DHT22;11798;51.528;7.240;2022-11-15T12:23:20;13.50;99.90
23259;DHT22;11798;51.528;7.240;2022-11-15T12:28:40;13.50;99.90
23259;DHT22;11798;51.528;7.240;2022-11-15T12:31:18;13.50;99.90
23259;DHT22;11798;51.528;7.240;2022-11-15T12:33:47;13.50;99.90
23259;DHT22;11798;51.528;7.240;2022-11-15T12:39:03;13.40;99.90
23259;DHT22;11798;51.528;7.240;2022-11-15T12:41:31;13.40;99.90
23259;DHT22;11798;51.528;7.240;2022-11-15T12:43:57;13.40;99.90
23259;DHT22;11798;51.528;7.240;2022-11-15T12:52:03;13.30;99.90
23259;DHT22;11798;51.528;7.240;2022-11-15T13:00:00;13.40;99.90
23259;DHT22;11798;51.528;7.240;2022-11-15T13:02:42;13.30;99.90
23259;DHT22;11798;51.528;7.240;2022-11-15T13:13:12;13.40;99.90
23259;DHT22;11798;51.528;7.240;2022-11-15T13:16:01;13.40;99.90
23259;DHT22;11798;51.528;7.240;2022-11-15T13:20:55;13.40;99.90
23259;DHT22;11798;51.528;7.240;2022-11-15T13:23:21;13.30;99.90
23259;DHT22;11798;51.528;7.240;2022-11-15T13:25:56;13.30;99.90
23259;DHT22;11798;51.528;7.240;2022-11-15T13:31:37;13.30;99.90
23259;DHT22;11798;51.528;7.240;2022-11-15T13:34:31;13.30;99.90
23259;DHT22;11798;51.528;7.240;2022-11-15T13:37:01;13.20;99.90
23259;DHT22;11798;51.528;7.240;2022-11-15T13:39:31;13.30;99.90
23259;DHT22;11798;51.528;7.240;2022-11-15T13:41:58;13.20;99.90
23259;DHT22;11798;51.528;7.240;2022-11-15T13:44:31;13.20;99.90
23259;DHT22;11798;51.528;7.240;2022-11-15T13:47:14;13.20;99.90
23259;DHT22;11798;51.528;7.240;2022-11-15T13:49:41;13.20;99.90
23259;DHT22;11798;51.528;7.240;2022-11-15T13:52:10;13.30;99.90
23259;DHT22;11798;51.528;7.240;2022-11-15T13:54:59;13.30;99.90
23259;DHT22;11798;51.528;7.240;2022-11-15T13:57:29;13.40;99.90
23259;DHT22;11798;51.528;7.240;2022-11-15T13:59:59;13.40;99.90
23259;DHT22;11798;51.528;7.240;2022-11-15T14:02:29;13.40;99.90
23259;DHT22;11798;51.528;7.240;2022-11-15T14:05:02;13.30;99.90
23259;DHT22;11798;51.528;7.240;2022-11-15T14:07:30;13.30;99.90
23259;DHT22;11798;51.528;7.240;2022-11-15T14:09:57;13.30;99.90
23259;DHT22;11798;51.528;7.240;2022-11-15T14:12:35;13.40;99.90
23259;DHT22;11798;51.528;7.240;2022-11-15T14:15:18;13.30;99.90
23259;DHT22;11798;51.528;7.240;2022-11-15T14:17:44;13.30;99.90
23259;DHT22;11798;51.528;7.240;2022-11-15T14:20:40;13.30;99.90
23259;DHT22;11798;51.528;7.240;2022-11-15T14:23:23;13.30;99.90
23259;DHT22;11798;51.528;7.240;2022-11-15T14:25:56;13.40;99.90
23259;DHT22;11798;51.528;7.240;2022-11-15T14:30:48;13.40;99.90
23259;DHT22;11798;51.528;7.240;2022-11-15T14:35:49;13.40;99.90
23259;DHT22;11798;51.528;7.240;2022-11-15T14:38:15;13.30;99.90
23259;DHT22;11798;51.528;7.240;2022-11-15T14:40:42;13.40;99.90
23259;DHT22;11798;51.528;7.240;2022-11-15T14:43:11;13.30;99.90
23259;DHT22;11798;51.528;7.240;2022-11-15T14:45:38;13.30;99.90
23259;DHT22;11798;51.528;7.240;2022-11-15T14:48:04;13.30;99.90
23259;DHT22;11798;51.528;7.240;2022-11-15T14:50:29;13.30;99.90
23259;DHT22;11798;51.528;7.240;2022-11-15T14:52:56;13.30;99.90
23259;DHT22;11798;51.528;7.240;2022-11-15T14:55:28;13.30;99.90
23259;DHT22;11798;51.528;7.240;2022-11-15T14:57:54;13.30;99.90
23259;DHT22;11798;51.528;7.240;2022-11-15T15:00:20;13.20;99.90
23259;DHT22;11798;51.528;7.240;2022-11-15T15:02:47;13.20;99.90
23259;DHT22;11798;51.528;7.240;2022-11-15T15:05:29;13.20;99.90
23259;DHT22;11798;51.528;7.240;2022-11-15T15:07:55;13.20;99.90
23259;DHT22;11798;51.528;7.240;2022-11-15T15:10:22;13.20;99.90
23259;DHT22;11798;51.528;7.240;2022-11-15T15:12:48;13.20;99.90
23259;DHT22;11798;51.528;7.240;2022-11-15T15:15:19;13.20;99.90
23259;DHT22;11798;51.528;7.240;2022-11-15T15:17:46;13.20;99.90
23259;DHT22;11798;51.528;7.240;2022-11-15T15:20:12;13.10;99.90
23259;DHT22;11798;51.528;7.240;2022-11-15T15:22:38;13.10;99.90
23259;DHT22;11798;51.528;7.240;2022-11-15T15:27:44;13.10;99.90
23259;DHT22;11798;51.528;7.240;2022-11-15T15:30:10;13.00;99.90
23259;DHT22;11798;51.528;7.240;2022-11-15T15:32:35;13.00;99.90
23259;DHT22;11798;51.528;7.240;2022-11-15T15:35:01;13.00;99.90
23259;DHT22;11798;51.528;7.240;2022-11-15T15:37:27;13.00;99.90
23259;DHT22;11798;51.528;7.240;2022-11-15T15:39:54;13.00;99.90
23259;DHT22;11798;51.528;7.240;2022-11-15T15:42:21;13.00;99.90
23259;DHT22;11798;51.528;7.240;2022-11-15T15:44:48;13.00;99.90
23259;DHT22;11798;51.528;7.240;2022-11-15T15:47:16;12.90;99.90
23259;DHT22;11798;51.528;7.240;2022-11-15T15:49:42;12.90;99.90
23259;DHT22;11798;51.528;7.240;2022-11-15T15:52:08;12.90;99.90
23259;DHT22;11798;51.528;7.240;2022-11-15T15:54:33;12.90;99.90
23259;DHT22;11798;51.528;7.240;2022-11-15T15:56:59;12.90;99.90
23259;DHT22;11798;51.528;7.240;2022-11-15T15:59:24;12.90;99.90
23259;DHT22;11798;51.528;7.240;2022-11-15T16:01:50;12.90;99.90
23259;DHT22;11798;51.528;7.240;2022-11-15T16:04:16;12.90;99.90
23259;DHT22;11798;51.528;7.240;2022-11-15T16:06:41;12.90;99.90
23259;DHT22;11798;51.528;7.240;2022-11-15T16:09:13;12.90;99.90
23259;DHT22;11798;51.528;7.240;2022-11-15T16:11:39;12.90;99.90
23259;DHT22;11798;51.528;7.240;2022-11-15T16:14:05;12.90;99.90
23259;DHT22;11798;51.528;7.240;2022-11-15T16:16:31;12.90;99.90
23259;DHT22;11798;51.528;7.240;2022-11-15T16:18:57;12.90;99.90
23259;DHT22;11798;51.528;7.240;2022-11-15T16:21:22;12.90;99.90
23259;DHT22;11798;51.528;7.240;2022-11-15T16:23:48;12.90;99.90
23259;DHT22;11798;51.528;7.240;2022-11-15T16:26:21;12.90;99.90
23259;DHT22;11798;51.528;7.240;2022-11-15T16:28:46;12.90;99.90
23259;DHT22;11798;51.528;7.240;2022-11-15T16:31:12;12.90;99.90
23259;DHT22;11798;51.528;7.240;2022-11-15T16:33:39;12.90;99.90
23259;DHT22;11798;51.528;7.240;2022-11-15T16:36:10;12.80;99.90
23259;DHT22;11798;51.528;7.240;2022-11-15T16:38:37;12.90;99.90
23259;DHT22;11798;51.528;7.240;2022-11-15T16:41:04;12.90;99.90
23259;DHT22;11798;51.528;7.240;2022-11-15T16:43:30;12.90;99.90
23259;DHT22;11798;51.528;7.240;2022-11-15T16:45:55;12.90;99.90
23259;DHT22;11798;51.528;7.240;2022-11-15T16:48:23;12.90;99.90
23259;DHT22;11798;51.528;7.240;2022-11-15T16:50:50;12.90;99.90
23259;DHT22;11798;51.528;7.240;2022-11-15T16:53:15;12.90;99.90
23259;DHT22;11798;51.528;7.240;2022-11-15T16:55:41;12.90;99.90
23259;DHT22;11798;51.528;7.240;2022-11-15T16:58:08;12.90;99.90
23259;DHT22;11798;51.528;7.240;2022-11-15T17:00:34;12.90;99.90
23259;DHT22;11798;51.528;7.240;2022-11-15T17:03:00;12.90;99.90
23259;DHT22;11798;51.528;7.240;2022-11-15T17:05:28;12.90;99.90
23259;DHT22;11798;51.528;7.240;2022-11-15T17:07:53;12.90;99.90
23259;DHT22;11798;51.528;7.240;2022-11-15T17:10:24;12.90;99.90
23259;DHT22;11798;51.528;7.240;2022-11-15T17:12:50;13.00;99.90
23259;DHT22;11798;51.528;7.240;2022-11-15T17:15:17;12.90;99.90
23259;DHT22;11798;51.528;7.240;2022-11-15T17:17:43;13.00;99.90
23259;DHT22;11798;51.528;7.240;2022-11-15T17:20:17;12.90;99.90
23259;DHT22;11798;51.528;7.240;2022-11-15T17:22:43;12.90;99.90
23259;DHT22;11798;51.528;7.240;2022-11-15T17:25:09;12.90;99.90
23259;DHT22;11798;51.528;7.240;2022-11-15T17:27:35;12.90;99.90
23259;DHT22;11798;51.528;7.240;2022-11-15T17:30:00;12.90;99.90
23259;DHT22;11798;51.528;7.240;2022-11-15T17:32:26;12.90;99.90
23259;DHT22;11798;51.528;7.240;2022-11-15T17:34:52;12.90;99.90
23259;DHT22;11798;51.528;7.240;2022-11-15T17:37:17;12.90;99.90